Jock — WDF2423 — position and weather

sailwx.info

Track history (hours):
 
Tides and Currents Weather Stations Pressure Air Temp Water Temp Dewpoint Dewpoint Depression Visibility Wind Speed Wind Dir Waves Ship Positions

Jock

Owner: Enterprise Marine Services, LLC, San Antonio, TX. More information available from US FCC via Universal Licensing System and Coast Guard Vessel Documentation Center.

Last reported at 2016-May-17 20:08 UTC. Time now 2016-May-25 18:49 UTC.
Position N 30°01' W 089°54'.

Length 28 m; draft 8.6 m.

Type: Other ship. MMSI: 367003460.

Date/timePositionNaut miles runAvg speedWind from/ knotsBaromVisibWave heightAir tempDewpointWater temp
2016-May-17 20:08N 30°01' W 089°54'3 4.9
2016-May-17 19:33N 30°00' W 089°57'2 1.9
2016-May-17 18:33N 29°60' W 089°59'0 0.0
2016-May-17 17:33N 29°60' W 089°59'2 2.3
2016-May-17 16:33N 29°59' W 090°01'1 0.8
2016-May-17 15:33N 29°58' W 090°02'2 1.5
2016-May-17 14:33N 29°57' W 090°01'1 0.9
2016-May-17 13:33N 29°56' W 089°60'0 0.0
2016-May-17 12:33N 29°56' W 089°60'0 0.0
2016-May-17 11:33N 29°56' W 089°60'0 0.0
2016-May-17 10:33N 29°56' W 089°60'0 0.0
2016-May-17 09:33N 29°56' W 089°60'0 0.0
2016-May-17 08:33N 29°56' W 089°60'0 0.0
2016-May-17 07:33N 29°56' W 089°60'0 0.0
2016-May-17 06:33N 29°56' W 089°60'1 0.6
2016-May-17 05:33N 29°56' W 090°00'0 0.0
2016-May-17 04:33N 29°56' W 090°00'0 0.0
2016-May-17 03:33N 29°56' W 090°00'1 0.6
2016-May-17 02:33N 29°56' W 089°60'3 3.4
2016-May-17 01:32N 29°55' W 089°56'2 2.2
2016-May-17 00:33N 29°55' W 089°58'1 0.6
2016-May-16 23:33N 29°54' W 089°59'0 0.0
2016-May-16 22:33N 29°54' W 089°59'0 0.0
2016-May-16 21:33N 29°54' W 089°59'0 0.0
2016-May-16 20:33N 29°54' W 089°59'0 0.0
2016-May-16 19:33N 29°54' W 089°59'0 0.0
2016-May-16 18:33N 29°54' W 089°59'0 0.0
2016-May-16 17:33N 29°54' W 089°59'0 0.0
2016-May-16 16:33N 29°54' W 089°59'0 0.0
2016-May-16 15:33N 29°54' W 089°59'0 0.0
2016-May-16 14:33N 29°54' W 089°59'0 0.0
2016-May-16 13:33N 29°54' W 089°59'0 0.0
2016-May-16 12:33N 29°54' W 089°59'0 0.0
2016-May-16 11:33N 29°54' W 089°59'0 0.0
2016-May-16 10:33N 29°54' W 089°59'0 0.0
2016-May-16 09:33N 29°54' W 089°59'0 0.0
2016-May-16 08:33N 29°54' W 089°59'0 0.0
2016-May-16 07:33N 29°54' W 089°59'0 0.0
2016-May-16 06:33N 29°54' W 089°59'0 0.0
2016-May-16 05:33N 29°54' W 089°59'0 0.0
2016-May-16 04:33N 29°54' W 089°59'0 0.0
2016-May-16 03:33N 29°54' W 089°59'0 0.0
2016-May-16 02:33N 29°54' W 089°59'0 0.0
2016-May-16 01:33N 29°54' W 089°59'0 0.0
2016-May-16 00:33N 29°54' W 089°59'0 0.0
2016-May-15 23:33N 29°54' W 089°59'0 0.0
2016-May-15 22:33N 29°54' W 089°59'0 0.0
2016-May-15 21:33N 29°54' W 089°59'0 0.0
2016-May-15 20:33N 29°54' W 089°59'1 0.6
2016-May-15 19:33N 29°54' W 089°59'0 0.0
2016-May-15 18:33N 29°54' W 089°59'0 0.0
2016-May-15 17:33N 29°54' W 089°60'1 1.4
2016-May-15 16:33N 29°53' W 090°00'3 2.8
2016-May-15 15:33N 29°50' W 090°02'3 3.2
2016-May-15 14:33N 29°48' W 090°04'27 3.3
2016-May-15 06:33N 29°34' W 090°30'5 5.2
2016-May-15 05:33N 29°35' W 090°36'5 4.7
2016-May-15 04:33N 29°36' W 090°41'3 2.7
2016-May-15 03:33N 29°34' W 090°43'4 4.2
2016-May-15 02:33N 29°32' W 090°47'94 4.2
2016-May-14 04:21N 29°54' W 092°32'6 5.6
2016-May-14 03:15N 29°56' W 092°39'3 4.7
2016-May-14 02:33N 29°57' W 092°43'6 4.9
2016-May-14 01:17N 29°58' W 092°50'8 4.8
2016-May-13 23:32N 29°56' W 092°59'4 4.4
2016-May-13 22:33N 29°56' W 093°04'4 3.7
2016-May-13 21:33N 29°56' W 093°08'4 4.2
2016-May-13 20:33N 29°59' W 093°12'4 4.0
2016-May-13 19:33N 30°02' W 093°15'3 2.9
2016-May-13 18:33N 30°04' W 093°16'0 0.1
2016-May-13 17:33N 30°05' W 093°16'2 1.9
2016-May-13 16:33N 30°06' W 093°18'4 3.9
2016-May-13 15:33N 30°04' W 093°22'5 5.3
2016-May-13 14:33N 30°04' W 093°28'6 5.7
2016-May-13 13:33N 30°04' W 093°35'6 5.5
2016-May-13 12:33N 30°04' W 093°41'5 4.7
2016-May-13 11:33N 30°01' W 093°45'4 4.0
2016-May-13 10:33N 29°59' W 093°49'7 3.7
2016-May-13 08:33N 30°01' W 093°58'4 3.6
2016-May-13 07:30N 30°02' W 094°02'0 0.1
2016-May-13 06:26N 30°02' W 094°02'0 0.0
2016-May-13 05:32N 30°02' W 094°02'0 0.0
2016-May-13 04:09N 30°02' W 094°02'0 0.0
2016-May-13 03:33N 30°02' W 094°02'  
2016-May-10 23:23N 29°57' W 093°52'0 0.0
2016-May-10 22:26N 29°57' W 093°52'0 0.0
2016-May-10 20:25N 29°57' W 093°52'0 0.1
2016-May-10 19:33N 29°57' W 093°52'0 0.0
2016-May-09 18:28N 29°57' W 093°52'0 0.0
2016-May-09 16:16N 29°57' W 093°52'0 0.0
2016-May-09 12:26N 29°57' W 093°52'0 0.0
2016-May-09 11:24N 29°57' W 093°52'0 0.0
2016-May-09 10:23N 29°57' W 093°52'  
Track history (hours):
 
Tides and Currents Weather Stations Pressure Air Temp Water Temp Dewpoint Dewpoint Depression Visibility Wind Speed Wind Dir Waves Ship Positions

Jock

Owner: Enterprise Marine Services, LLC, San Antonio, TX. More information available from US FCC via Universal Licensing System and Coast Guard Vessel Documentation Center.

Last reported at 2016-May-17 20:08 UTC. Time now 2016-May-25 18:49 UTC.
Position N 30°01' W 089°54'.

Length 28 m; draft 8.6 m.

Type: Other ship. MMSI: 367003460.

Date/timePositionNaut miles runAvg speedWind from/ knotsBaromVisibWave heightAir tempDewpointWater temp
2016-May-17 20:08N 30°01' W 089°54'3 4.9
2016-May-17 19:33N 30°00' W 089°57'2 1.9
2016-May-17 18:33N 29°60' W 089°59'0 0.0
2016-May-17 17:33N 29°60' W 089°59'2 2.3
2016-May-17 16:33N 29°59' W 090°01'1 0.8
2016-May-17 15:33N 29°58' W 090°02'2 1.5
2016-May-17 14:33N 29°57' W 090°01'1 0.9
2016-May-17 13:33N 29°56' W 089°60'0 0.0
2016-May-17 12:33N 29°56' W 089°60'0 0.0
2016-May-17 11:33N 29°56' W 089°60'0 0.0
2016-May-17 10:33N 29°56' W 089°60'0 0.0
2016-May-17 09:33N 29°56' W 089°60'0 0.0
2016-May-17 08:33N 29°56' W 089°60'0 0.0
2016-May-17 07:33N 29°56' W 089°60'0 0.0
2016-May-17 06:33N 29°56' W 089°60'1 0.6
2016-May-17 05:33N 29°56' W 090°00'0 0.0
2016-May-17 04:33N 29°56' W 090°00'0 0.0
2016-May-17 03:33N 29°56' W 090°00'1 0.6
2016-May-17 02:33N 29°56' W 089°60'3 3.4
2016-May-17 01:32N 29°55' W 089°56'2 2.2
2016-May-17 00:33N 29°55' W 089°58'1 0.6
2016-May-16 23:33N 29°54' W 089°59'0 0.0
2016-May-16 22:33N 29°54' W 089°59'0 0.0
2016-May-16 21:33N 29°54' W 089°59'0 0.0
2016-May-16 20:33N 29°54' W 089°59'0 0.0
2016-May-16 19:33N 29°54' W 089°59'0 0.0
2016-May-16 18:33N 29°54' W 089°59'0 0.0
2016-May-16 17:33N 29°54' W 089°59'0 0.0
2016-May-16 16:33N 29°54' W 089°59'0 0.0
2016-May-16 15:33N 29°54' W 089°59'0 0.0
2016-May-16 14:33N 29°54' W 089°59'0 0.0
2016-May-16 13:33N 29°54' W 089°59'0 0.0
2016-May-16 12:33N 29°54' W 089°59'0 0.0
2016-May-16 11:33N 29°54' W 089°59'0 0.0
2016-May-16 10:33N 29°54' W 089°59'0 0.0
2016-May-16 09:33N 29°54' W 089°59'0 0.0
2016-May-16 08:33N 29°54' W 089°59'0 0.0
2016-May-16 07:33N 29°54' W 089°59'0 0.0
2016-May-16 06:33N 29°54' W 089°59'0 0.0
2016-May-16 05:33N 29°54' W 089°59'0 0.0
2016-May-16 04:33N 29°54' W 089°59'0 0.0
2016-May-16 03:33N 29°54' W 089°59'0 0.0
2016-May-16 02:33N 29°54' W 089°59'0 0.0
2016-May-16 01:33N 29°54' W 089°59'0 0.0
2016-May-16 00:33N 29°54' W 089°59'0 0.0
2016-May-15 23:33N 29°54' W 089°59'0 0.0
2016-May-15 22:33N 29°54' W 089°59'0 0.0
2016-May-15 21:33N 29°54' W 089°59'0 0.0
2016-May-15 20:33N 29°54' W 089°59'1 0.6
2016-May-15 19:33N 29°54' W 089°59'0 0.0
2016-May-15 18:33N 29°54' W 089°59'0 0.0
2016-May-15 17:33N 29°54' W 089°60'1 1.4
2016-May-15 16:33N 29°53' W 090°00'3 2.8
2016-May-15 15:33N 29°50' W 090°02'3 3.2
2016-May-15 14:33N 29°48' W 090°04'27 3.3
2016-May-15 06:33N 29°34' W 090°30'5 5.2
2016-May-15 05:33N 29°35' W 090°36'5 4.7
2016-May-15 04:33N 29°36' W 090°41'3 2.7
2016-May-15 03:33N 29°34' W 090°43'4 4.2
2016-May-15 02:33N 29°32' W 090°47'94 4.2
2016-May-14 04:21N 29°54' W 092°32'6 5.6
2016-May-14 03:15N 29°56' W 092°39'3 4.7
2016-May-14 02:33N 29°57' W 092°43'6 4.9
2016-May-14 01:17N 29°58' W 092°50'8 4.8
2016-May-13 23:32N 29°56' W 092°59'4 4.4
2016-May-13 22:33N 29°56' W 093°04'4 3.7
2016-May-13 21:33N 29°56' W 093°08'4 4.2
2016-May-13 20:33N 29°59' W 093°12'4 4.0
2016-May-13 19:33N 30°02' W 093°15'3 2.9
2016-May-13 18:33N 30°04' W 093°16'0 0.1
2016-May-13 17:33N 30°05' W 093°16'2 1.9
2016-May-13 16:33N 30°06' W 093°18'4 3.9
2016-May-13 15:33N 30°04' W 093°22'5 5.3
2016-May-13 14:33N 30°04' W 093°28'6 5.7
2016-May-13 13:33N 30°04' W 093°35'6 5.5
2016-May-13 12:33N 30°04' W 093°41'5 4.7
2016-May-13 11:33N 30°01' W 093°45'4 4.0
2016-May-13 10:33N 29°59' W 093°49'7 3.7
2016-May-13 08:33N 30°01' W 093°58'4 3.6
2016-May-13 07:30N 30°02' W 094°02'0 0.1
2016-May-13 06:26N 30°02' W 094°02'0 0.0
2016-May-13 05:32N 30°02' W 094°02'0 0.0
2016-May-13 04:09N 30°02' W 094°02'0 0.0
2016-May-13 03:33N 30°02' W 094°02'  
2016-May-10 23:23N 29°57' W 093°52'0 0.0
2016-May-10 22:26N 29°57' W 093°52'0 0.0
2016-May-10 20:25N 29°57' W 093°52'0 0.1
2016-May-10 19:33N 29°57' W 093°52'0 0.0
2016-May-09 18:28N 29°57' W 093°52'0 0.0
2016-May-09 16:16N 29°57' W 093°52'0 0.0
2016-May-09 12:26N 29°57' W 093°52'0 0.0
2016-May-09 11:24N 29°57' W 093°52'0 0.0
2016-May-09 10:23N 29°57' W 093°52'  

Dump ship's entire track history